createdAt,value
2019-02-27T00:01:08.456Z,17.07
2019-02-27T00:03:38.362Z,16.30
2019-02-27T00:06:07.224Z,12.93
2019-02-27T00:08:36.021Z,10.53
2019-02-27T00:11:05.067Z,13.27
2019-02-27T00:13:34.157Z,16.80
2019-02-27T00:16:03.782Z,14.67
2019-02-27T00:18:32.569Z,14.67
2019-02-27T00:21:01.378Z,13.43
2019-02-27T00:23:30.241Z,13.33
2019-02-27T00:25:59.271Z,13.70
2019-02-27T00:28:28.168Z,15.50
2019-02-27T00:30:57.217Z,16.80
2019-02-27T00:33:27.930Z,13.63
2019-02-27T00:35:57.079Z,17.70
2019-02-27T00:38:25.870Z,12.53
2019-02-27T00:40:55.141Z,15.90
2019-02-27T00:43:25.998Z,12.63
2019-02-27T00:45:55.036Z,19.83
2019-02-27T00:48:26.001Z,13.80
2019-02-27T00:50:55.008Z,19.10
2019-02-27T00:53:24.584Z,19.37
2019-02-27T00:55:53.945Z,14.07
2019-02-27T00:58:26.831Z,13.73
2019-02-27T01:00:54.020Z,15.03
2019-02-27T01:03:26.012Z,17.50
2019-02-27T01:05:53.948Z,13.40
2019-02-27T01:08:25.127Z,14.73
2019-02-27T01:10:53.357Z,15.57
2019-02-27T01:13:22.662Z,13.33
2019-02-27T01:15:51.765Z,13.53
2019-02-27T01:18:20.557Z,13.40
2019-02-27T01:20:49.412Z,14.77
2019-02-27T01:23:18.285Z,14.33
2019-02-27T01:25:47.464Z,15.60
2019-02-27T01:28:16.276Z,17.27
2019-02-27T01:30:45.207Z,15.27
2019-02-27T01:33:13.989Z,15.23
2019-02-27T01:35:42.781Z,16.07
2019-02-27T01:38:11.900Z,16.00
2019-02-27T01:40:41.063Z,14.70
2019-02-27T01:43:10.201Z,12.63
2019-02-27T01:45:39.017Z,14.53
2019-02-27T01:48:09.208Z,13.50
2019-02-27T01:50:38.998Z,11.87
2019-02-27T01:53:10.811Z,17.90
2019-02-27T01:55:39.657Z,16.37
2019-02-27T01:58:09.638Z,13.43
2019-02-27T02:00:40.101Z,18.20
2019-02-27T02:03:11.166Z,13.30
2019-02-27T02:05:39.481Z,17.13
2019-02-27T02:08:13.418Z,14.53
2019-02-27T02:10:39.807Z,15.97
2019-02-27T02:13:15.303Z,13.50
2019-02-27T02:16:00.877Z,18.50
2019-02-27T02:19:05.400Z,10.13
2019-02-27T02:21:58.845Z,15.03
2019-02-27T02:24:57.682Z,12.33
2019-02-27T02:28:26.403Z,13.63
2019-02-27T02:31:24.973Z,10.57
2019-02-27T02:34:40.123Z,9.80
2019-02-27T02:37:36.559Z,12.00
2019-02-27T02:40:41.791Z,10.53
2019-02-27T02:43:45.074Z,15.90
2019-02-27T02:46:44.776Z,14.47
2019-02-27T02:49:24.936Z,13.80
2019-02-27T02:52:15.774Z,13.60
2019-02-27T02:55:32.130Z,12.50
2019-02-27T02:58:31.456Z,15.37
2019-02-27T03:01:22.311Z,22.40
2019-02-27T03:04:28.030Z,12.63
2019-02-27T03:07:26.943Z,17.07
2019-02-27T03:10:46.327Z,13.97
2019-02-27T03:13:52.109Z,14.50
2019-02-27T03:17:05.601Z,18.00
2019-02-27T03:19:51.282Z,15.90
2019-02-27T03:22:40.476Z,14.50
2019-02-27T03:25:41.863Z,14.10
2019-02-27T03:29:04.175Z,14.17
2019-02-27T03:31:57.477Z,13.63
2019-02-27T03:35:03.937Z,16.73
2019-02-27T03:37:50.988Z,19.97
2019-02-27T03:41:10.902Z,14.30
2019-02-27T03:44:10.726Z,16.60
2019-02-27T03:46:59.790Z,18.37
2019-02-27T03:50:00.519Z,15.93
2019-02-27T03:52:56.045Z,17.80
2019-02-27T03:55:36.211Z,18.43
2019-02-27T03:58:45.408Z,20.37
2019-02-27T04:01:53.370Z,20.90
2019-02-27T04:05:09.570Z,21.13
2019-02-27T04:08:26.983Z,16.60
2019-02-27T04:10:56.056Z,14.90
2019-02-27T04:13:27.683Z,16.13
2019-02-27T04:15:55.826Z,13.97
2019-02-27T04:18:27.564Z,13.23
2019-02-27T04:20:53.969Z,13.83
2019-02-27T04:23:22.957Z,17.37
2019-02-27T04:25:52.005Z,20.37
2019-02-27T04:28:20.794Z,17.40
2019-02-27T04:30:51.388Z,15.37
2019-02-27T04:33:23.208Z,15.73
2019-02-27T04:35:51.159Z,15.87
2019-02-27T04:38:19.929Z,13.93
2019-02-27T04:40:49.329Z,16.73
2019-02-27T04:43:18.116Z,15.03
2019-02-27T04:45:47.594Z,19.00
2019-02-27T04:48:16.598Z,15.27
2019-02-27T04:50:45.469Z,15.70
2019-02-27T04:53:14.262Z,17.40
2019-02-27T04:55:43.138Z,16.57
2019-02-27T04:58:12.004Z,18.13
2019-02-27T05:00:40.777Z,17.77
2019-02-27T05:03:09.581Z,13.83
2019-02-27T05:05:39.125Z,15.13
2019-02-27T05:08:09.100Z,13.77
2019-02-27T05:10:38.186Z,17.40
2019-02-27T05:13:08.397Z,19.60
2019-02-27T05:15:39.506Z,17.03
2019-02-27T05:18:07.757Z,15.47
2019-02-27T05:20:36.557Z,14.30
2019-02-27T05:23:05.413Z,17.30
2019-02-27T05:25:34.183Z,20.23
2019-02-27T05:28:03.002Z,17.87
2019-02-27T05:30:32.185Z,13.53
2019-02-27T05:33:02.083Z,15.87
2019-02-27T05:35:31.853Z,18.63
2019-02-27T05:38:00.683Z,20.07
2019-02-27T05:40:35.132Z,16.43
2019-02-27T05:43:04.293Z,18.13
2019-02-27T05:45:33.452Z,19.60
2019-02-27T05:48:02.321Z,15.07
2019-02-27T05:50:33.951Z,16.40
2019-02-27T05:53:02.325Z,15.83
2019-02-27T05:55:31.433Z,18.07
2019-02-27T05:58:00.229Z,18.37
2019-02-27T06:00:29.672Z,17.87
2019-02-27T06:02:58.570Z,17.87
2019-02-27T06:05:30.965Z,20.80
2019-02-27T06:08:20.741Z,21.83
2019-02-27T06:10:49.570Z,15.13
2019-02-27T06:13:25.780Z,13.47
2019-02-27T06:15:54.588Z,16.40
2019-02-27T06:18:23.916Z,20.00
2019-02-27T06:20:53.130Z,16.47
2019-02-27T06:23:21.989Z,18.70
2019-02-27T06:25:50.812Z,18.30
2019-02-27T06:28:19.709Z,16.43
2019-02-27T06:30:48.493Z,18.83
2019-02-27T06:33:17.284Z,17.67
2019-02-27T06:35:47.046Z,22.37
2019-02-27T06:38:16.369Z,22.43
2019-02-27T06:40:45.224Z,19.43
2019-02-27T06:43:14.080Z,20.07
2019-02-27T06:45:45.600Z,21.30
2019-02-27T06:48:13.657Z,19.30
2019-02-27T06:50:42.712Z,17.87
2019-02-27T06:53:15.616Z,21.00
2019-02-27T06:55:42.885Z,18.70
2019-02-27T06:58:14.330Z,21.70
2019-02-27T07:00:42.320Z,22.67
2019-02-27T07:03:11.117Z,22.80
2019-02-27T07:05:39.938Z,31.50
2019-02-27T07:08:08.830Z,25.73
2019-02-27T07:10:37.716Z,25.90
2019-02-27T07:13:06.517Z,23.77
2019-02-27T07:15:35.686Z,41.37
2019-02-27T07:18:06.137Z,28.60
2019-02-27T07:20:35.505Z,27.90
2019-02-27T07:23:04.389Z,31.17
2019-02-27T07:25:33.149Z,33.93
2019-02-27T07:28:03.513Z,30.43
2019-02-27T07:30:32.518Z,32.33
2019-02-27T07:33:03.782Z,28.07
2019-02-27T07:35:32.097Z,37.37
2019-02-27T07:38:01.241Z,24.23
2019-02-27T07:40:30.013Z,28.03
2019-02-27T07:42:58.805Z,30.43
2019-02-27T07:45:27.676Z,26.67
2019-02-27T07:47:56.468Z,25.70
2019-02-27T07:50:25.473Z,30.90
2019-02-27T07:52:54.335Z,31.00
2019-02-27T07:55:26.134Z,22.00
2019-02-27T07:57:58.523Z,30.40
2019-02-27T08:00:26.360Z,18.07
2019-02-27T08:02:55.538Z,22.10
2019-02-27T08:05:27.943Z,17.13
2019-02-27T08:07:54.969Z,17.07
2019-02-27T08:10:23.940Z,19.77
2019-02-27T08:12:56.489Z,15.80
2019-02-27T08:15:25.573Z,21.73
2019-02-27T08:17:57.826Z,15.90
2019-02-27T08:20:25.544Z,18.33
2019-02-27T08:22:54.421Z,17.60
2019-02-27T08:25:24.986Z,17.27
2019-02-27T08:27:54.309Z,16.63
2019-02-27T08:30:23.370Z,22.20
2019-02-27T08:32:52.675Z,15.63
2019-02-27T08:35:21.897Z,17.90
2019-02-27T08:37:50.681Z,16.33
2019-02-27T08:40:24.423Z,24.53
2019-02-27T08:42:49.986Z,16.17
2019-02-27T08:45:20.043Z,16.97
2019-02-27T08:47:49.386Z,16.33
2019-02-27T08:50:18.394Z,17.50
2019-02-27T08:52:50.516Z,13.47
2019-02-27T08:55:21.085Z,20.17
2019-02-27T08:57:49.895Z,15.47
2019-02-27T09:00:23.142Z,17.67
2019-02-27T09:02:51.741Z,14.47
2019-02-27T09:05:21.009Z,15.97
2019-02-27T09:07:49.949Z,16.10
2019-02-27T09:10:18.962Z,16.27
2019-02-27T09:12:48.890Z,15.57
2019-02-27T09:15:18.295Z,17.73
2019-02-27T09:17:47.513Z,19.80
2019-02-27T09:20:19.647Z,16.50
2019-02-27T09:22:47.831Z,20.67
2019-02-27T09:25:17.281Z,17.50
2019-02-27T09:27:46.468Z,16.17
2019-02-27T09:30:15.906Z,19.17
2019-02-27T09:32:45.997Z,17.77
2019-02-27T09:35:15.182Z,17.07
2019-02-27T09:37:44.087Z,20.93
2019-02-27T09:40:15.485Z,21.90
2019-02-27T09:42:44.332Z,16.50
2019-02-27T09:45:24.617Z,15.63
2019-02-27T09:47:53.820Z,20.53
2019-02-27T09:50:31.441Z,23.23
2019-02-27T09:53:01.089Z,19.13
2019-02-27T09:55:30.924Z,14.47
2019-02-27T09:58:00.112Z,12.53
2019-02-27T10:00:33.797Z,13.57
2019-02-27T10:03:03.040Z,16.10
2019-02-27T10:05:36.284Z,16.33
2019-02-27T10:08:02.873Z,17.53
2019-02-27T10:10:31.661Z,24.17
2019-02-27T10:13:03.245Z,15.10
2019-02-27T10:15:31.434Z,14.10
2019-02-27T10:18:00.481Z,14.50
2019-02-27T10:20:29.750Z,15.03
2019-02-27T10:22:58.706Z,30.87
2019-02-27T10:25:27.480Z,23.57
2019-02-27T10:27:56.450Z,15.87
2019-02-27T10:30:25.726Z,16.83
2019-02-27T10:32:54.521Z,14.30
2019-02-27T10:35:23.508Z,14.27
2019-02-27T10:37:54.445Z,12.53
2019-02-27T10:40:23.440Z,16.10
2019-02-27T10:42:52.308Z,17.92
2019-02-27T10:45:21.244Z,16.05
2019-02-27T10:47:50.212Z,14.55
2019-02-27T10:50:19.385Z,14.55
2019-02-27T10:52:50.105Z,14.93
2019-02-27T10:55:19.240Z,15.88
2019-02-27T10:57:48.107Z,12.88
2019-02-27T11:00:28.749Z,15.13
2019-02-27T11:02:57.599Z,14.80
2019-02-27T11:05:27.044Z,14.28
2019-02-27T11:07:56.274Z,17.80
2019-02-27T11:10:25.558Z,12.53
2019-02-27T11:12:54.490Z,12.82
2019-02-27T11:15:23.571Z,12.80
2019-02-27T11:17:52.437Z,14.87
2019-02-27T11:20:22.154Z,13.85
2019-02-27T11:22:51.881Z,15.78
2019-02-27T11:25:22.534Z,13.58
2019-02-27T11:27:52.288Z,17.27
2019-02-27T11:30:23.557Z,16.48
2019-02-27T11:32:57.018Z,12.80
2019-02-27T11:35:25.189Z,15.10
2019-02-27T11:37:54.142Z,14.00
2019-02-27T11:40:23.522Z,14.55
2019-02-27T11:42:52.740Z,13.80
2019-02-27T11:45:24.663Z,15.10
2019-02-27T11:47:52.457Z,13.78
2019-02-27T11:50:21.398Z,20.17
2019-02-27T11:52:50.700Z,14.38
2019-02-27T11:55:19.903Z,13.08
2019-02-27T11:57:49.152Z,15.85
2019-02-27T12:00:23.218Z,12.70
2019-02-27T12:02:52.174Z,9.25
2019-02-27T12:05:21.124Z,11.20
2019-02-27T12:07:51.207Z,10.82
2019-02-27T12:10:21.823Z,8.85
2019-02-27T12:12:51.005Z,9.10
2019-02-27T12:15:20.190Z,14.20
2019-02-27T12:17:49.578Z,10.72
2019-02-27T12:20:19.577Z,11.93
2019-02-27T12:22:48.757Z,10.32
2019-02-27T12:25:17.824Z,16.12
2019-02-27T12:27:49.452Z,8.13
2019-02-27T12:30:19.049Z,11.48
2019-02-27T12:32:47.991Z,12.90
2019-02-27T12:35:19.154Z,12.53
2019-02-27T12:37:48.288Z,12.82
2019-02-27T12:40:23.914Z,8.33
2019-02-27T12:42:49.852Z,6.55
2019-02-27T12:45:20.349Z,13.35
2019-02-27T12:47:49.268Z,8.90
2019-02-27T12:50:19.608Z,8.20
2019-02-27T12:52:48.884Z,7.50
2019-02-27T12:55:20.377Z,7.22
2019-02-27T12:57:52.366Z,8.68
2019-02-27T13:00:27.826Z,7.92
2019-02-27T13:02:59.074Z,4.67
2019-02-27T13:05:28.431Z,5.65
2019-02-27T13:07:57.848Z,4.05
2019-02-27T13:10:26.791Z,5.08
2019-02-27T13:12:55.957Z,27.00
2019-02-27T13:15:25.128Z,6.45
2019-02-27T13:17:57.439Z,8.20
2019-02-27T13:20:26.055Z,6.37
2019-02-27T13:23:04.121Z,6.08
2019-02-27T13:25:31.079Z,3.05
2019-02-27T13:28:00.053Z,5.67
2019-02-27T13:30:29.593Z,5.55
2019-02-27T13:33:01.098Z,4.25
2019-02-27T13:35:29.239Z,4.90
2019-02-27T13:37:58.481Z,5.53
2019-02-27T13:40:27.445Z,4.10
2019-02-27T13:42:56.649Z,5.40
2019-02-27T13:45:26.097Z,6.72
2019-02-27T13:47:55.044Z,3.85
2019-02-27T13:50:26.710Z,4.70
2019-02-27T13:52:54.613Z,6.85
2019-02-27T13:55:23.605Z,5.97
2019-02-27T13:57:52.644Z,6.55
2019-02-27T14:00:25.779Z,4.03
2019-02-27T14:02:54.785Z,3.17
2019-02-27T14:05:23.815Z,3.47
2019-02-27T14:07:56.980Z,3.22
2019-02-27T14:10:23.650Z,3.62
2019-02-27T14:12:52.900Z,3.50
2019-02-27T14:15:26.962Z,4.42
2019-02-27T14:17:52.642Z,4.05
2019-02-27T14:20:21.618Z,5.58
2019-02-27T14:22:50.628Z,4.33
2019-02-27T14:25:21.287Z,5.83
2019-02-27T14:27:50.189Z,3.80
2019-02-27T14:30:21.153Z,3.35
2019-02-27T14:32:50.136Z,3.90
2019-02-27T14:35:19.029Z,5.00
2019-02-27T14:37:50.148Z,7.17
2019-02-27T14:40:19.781Z,4.60
2019-02-27T14:42:53.995Z,5.50
2019-02-27T14:45:20.663Z,4.72
2019-02-27T14:47:49.928Z,5.87
2019-02-27T14:50:20.031Z,3.98
2019-02-27T14:52:50.038Z,6.60
2019-02-27T14:55:19.705Z,4.53
2019-02-27T14:57:50.967Z,5.20
2019-02-27T15:00:21.789Z,5.80
2019-02-27T15:02:52.103Z,6.30
2019-02-27T15:05:21.185Z,5.20
2019-02-27T15:07:53.670Z,3.47
2019-02-27T15:10:20.949Z,3.50
2019-02-27T15:12:53.842Z,3.62
2019-02-27T15:15:25.369Z,4.70
2019-02-27T15:17:54.789Z,3.67
2019-02-27T15:20:24.280Z,6.08
2019-02-27T15:22:53.707Z,6.55
2019-02-27T15:25:22.801Z,4.75
2019-02-27T15:27:52.392Z,5.78
2019-02-27T15:30:23.020Z,6.22
2019-02-27T15:32:51.987Z,6.47
2019-02-27T15:35:22.170Z,4.80
2019-02-27T15:37:51.516Z,4.60
2019-02-27T15:40:21.545Z,4.75
2019-02-27T15:42:50.473Z,4.45
2019-02-27T15:45:20.137Z,6.75
2019-02-27T15:47:50.150Z,8.20
2019-02-27T15:50:22.846Z,7.35
2019-02-27T15:52:50.829Z,5.23
2019-02-27T15:55:19.865Z,4.63
2019-02-27T15:57:52.014Z,6.87
2019-02-27T16:00:21.899Z,4.80
2019-02-27T16:02:50.888Z,3.47
2019-02-27T16:05:20.065Z,6.23
2019-02-27T16:07:49.811Z,6.07
2019-02-27T16:10:24.217Z,3.80
2019-02-27T16:12:53.125Z,5.63
2019-02-27T16:15:22.371Z,5.90
2019-02-27T16:17:51.453Z,5.43
2019-02-27T16:20:20.760Z,4.10
2019-02-27T16:22:49.685Z,7.30
2019-02-27T16:25:20.195Z,4.67
2019-02-27T16:27:49.209Z,4.57
2019-02-27T16:30:31.336Z,5.17
2019-02-27T16:32:56.148Z,3.77
2019-02-27T16:35:25.072Z,8.20
2019-02-27T16:37:57.657Z,3.37
2019-02-27T16:40:25.079Z,7.63
2019-02-27T16:42:53.970Z,5.73
2019-02-27T16:45:32.171Z,3.50
2019-02-27T16:47:58.705Z,4.70
2019-02-27T16:50:28.207Z,6.47
2019-02-27T16:52:57.325Z,5.23
2019-02-27T16:55:26.560Z,6.20
2019-02-27T16:57:57.670Z,7.10
2019-02-27T17:00:28.157Z,7.40
2019-02-27T17:02:57.208Z,4.83
2019-02-27T17:05:26.241Z,5.13
2019-02-27T17:08:00.406Z,5.30
2019-02-27T17:10:29.364Z,4.10
2019-02-27T17:12:59.000Z,6.93
2019-02-27T17:15:34.525Z,6.53
2019-02-27T17:17:59.692Z,8.33
2019-02-27T17:20:28.685Z,5.23
2019-02-27T17:22:57.650Z,7.83
2019-02-27T17:25:30.069Z,7.03
2019-02-27T17:27:57.408Z,5.13
2019-02-27T17:30:28.471Z,6.47
2019-02-27T17:32:57.721Z,17.47
2019-02-27T17:35:26.862Z,22.47
2019-02-27T17:37:55.836Z,48.43
2019-02-27T17:40:25.000Z,50.80
2019-02-27T17:42:54.531Z,42.27
2019-02-27T17:45:23.568Z,23.93
2019-02-27T17:47:52.559Z,21.00
2019-02-27T17:50:21.434Z,15.63
2019-02-27T17:52:50.399Z,12.13
2019-02-27T17:55:19.456Z,8.00
2019-02-27T17:57:48.920Z,5.80
2019-02-27T18:00:28.527Z,8.90
2019-02-27T18:02:58.052Z,5.37
2019-02-27T18:05:27.326Z,7.60
2019-02-27T18:07:56.132Z,8.17
2019-02-27T18:10:25.305Z,8.60
2019-02-27T18:12:54.994Z,5.60
2019-02-27T18:15:23.834Z,9.50
2019-02-27T18:17:52.785Z,6.30
2019-02-27T18:20:25.615Z,12.63
2019-02-27T18:22:52.693Z,6.43
2019-02-27T18:25:21.593Z,6.13
2019-02-27T18:27:50.806Z,6.93
2019-02-27T18:30:19.825Z,6.63
2019-02-27T18:32:48.837Z,5.23
2019-02-27T18:35:17.902Z,5.60
2019-02-27T18:37:46.875Z,7.40
2019-02-27T18:40:17.051Z,6.73
2019-02-27T18:42:46.025Z,7.10
2019-02-27T18:45:16.212Z,6.10
2019-02-27T18:47:45.324Z,11.60
2019-02-27T18:50:14.832Z,12.17
2019-02-27T18:52:44.154Z,12.33
2019-02-27T18:55:13.285Z,11.67
2019-02-27T18:57:45.688Z,18.03
2019-02-27T19:00:16.138Z,10.70
2019-02-27T19:02:45.513Z,13.70
2019-02-27T19:05:14.530Z,8.90
2019-02-27T19:07:43.971Z,10.10
2019-02-27T19:10:14.869Z,13.33
2019-02-27T19:12:43.705Z,13.77
2019-02-27T19:15:14.901Z,12.50
2019-02-27T19:17:44.126Z,9.70
2019-02-27T19:20:14.598Z,8.10
2019-02-27T19:22:43.859Z,7.33
2019-02-27T19:25:13.993Z,8.80
2019-02-27T19:27:43.465Z,8.47
2019-02-27T19:30:14.984Z,5.90
2019-02-27T19:32:44.078Z,6.70
2019-02-27T19:35:13.253Z,8.57
2019-02-27T19:37:42.360Z,6.10
2019-02-27T19:40:13.371Z,8.00
2019-02-27T19:42:53.116Z,8.33
2019-02-27T19:45:22.138Z,6.63
2019-02-27T19:47:54.594Z,8.93
2019-02-27T19:50:22.270Z,8.73
2019-02-27T19:52:51.302Z,9.93
2019-02-27T19:55:20.192Z,9.53
2019-02-27T19:57:49.260Z,9.50
2019-02-27T20:00:20.261Z,9.67
2019-02-27T20:02:49.473Z,9.70
2019-02-27T20:05:19.793Z,9.40
2019-02-27T20:07:50.485Z,9.17
2019-02-27T20:10:21.313Z,9.03
2019-02-27T20:12:53.706Z,10.20
2019-02-27T20:15:23.456Z,14.97
2019-02-27T20:17:54.062Z,8.10
2019-02-27T20:20:23.890Z,6.17
2019-02-27T20:22:55.158Z,7.27
2019-02-27T20:25:24.521Z,9.50
2019-02-27T20:27:54.173Z,8.10
2019-02-27T20:30:24.342Z,7.33
2019-02-27T20:32:53.396Z,9.43
2019-02-27T20:35:22.924Z,13.30
2019-02-27T20:37:52.155Z,7.30
2019-02-27T20:40:21.337Z,7.63
2019-02-27T20:42:54.694Z,7.47
2019-02-27T20:45:21.467Z,9.93
2019-02-27T20:47:50.816Z,16.97
2019-02-27T20:50:34.633Z,12.07
2019-02-27T20:52:57.332Z,12.23
2019-02-27T20:55:30.875Z,10.93
2019-02-27T20:57:58.644Z,11.17
2019-02-27T21:00:28.334Z,10.13
2019-02-27T21:02:57.277Z,12.50
2019-02-27T21:05:26.677Z,12.07
2019-02-27T21:08:00.995Z,13.13
2019-02-27T21:10:26.317Z,12.30
2019-02-27T21:12:55.401Z,17.27
2019-02-27T21:15:24.983Z,10.13
2019-02-27T21:17:57.762Z,11.70
2019-02-27T21:20:24.945Z,11.77
2019-02-27T21:22:54.019Z,11.83
2019-02-27T21:25:23.121Z,13.30
2019-02-27T21:27:52.202Z,13.00
2019-02-27T21:30:21.207Z,18.37
2019-02-27T21:32:50.161Z,10.63
2019-02-27T21:35:19.633Z,12.37
2019-02-27T21:37:48.593Z,13.33
2019-02-27T21:40:17.504Z,12.60
2019-02-27T21:42:46.397Z,13.10
2019-02-27T21:45:16.224Z,13.13
2019-02-27T21:47:45.199Z,13.60
2019-02-27T21:50:15.952Z,14.40
2019-02-27T21:52:44.934Z,9.70
2019-02-27T21:55:13.976Z,10.23
2019-02-27T21:57:42.862Z,13.33
2019-02-27T22:00:14.754Z,11.87
2019-02-27T22:02:43.725Z,14.20
2019-02-27T22:05:18.511Z,11.97
2019-02-27T22:07:43.580Z,13.07
2019-02-27T22:10:12.884Z,9.70
2019-02-27T22:12:41.805Z,12.00
2019-02-27T22:15:15.381Z,12.20
2019-02-27T22:17:44.296Z,10.77
2019-02-27T22:20:13.569Z,14.10
2019-02-27T22:22:42.459Z,12.17
2019-02-27T22:25:11.465Z,13.40
2019-02-27T22:27:43.323Z,14.07
2019-02-27T22:30:13.232Z,15.47
2019-02-27T22:32:42.160Z,14.00
2019-02-27T22:35:11.053Z,17.83
2019-02-27T22:37:39.889Z,10.87
2019-02-27T22:40:10.420Z,14.63
2019-02-27T22:42:39.293Z,16.37
2019-02-27T22:45:09.125Z,14.47
2019-02-27T22:47:37.970Z,13.17
2019-02-27T22:50:07.186Z,14.30
2019-02-27T22:52:35.999Z,12.53
2019-02-27T22:55:07.405Z,13.43
2019-02-27T22:57:35.484Z,15.40
2019-02-27T23:00:13.256Z,11.57
2019-02-27T23:02:42.105Z,9.77
2019-02-27T23:05:11.000Z,13.23
2019-02-27T23:07:39.965Z,9.67
2019-02-27T23:10:09.009Z,13.97
2019-02-27T23:12:39.482Z,12.73
2019-02-27T23:15:08.729Z,12.87
2019-02-27T23:17:37.516Z,13.27
2019-02-27T23:20:06.444Z,13.53
2019-02-27T23:22:35.225Z,12.70
2019-02-27T23:25:04.763Z,13.23
2019-02-27T23:27:33.564Z,11.10
2019-02-27T23:30:02.730Z,16.27
2019-02-27T23:32:31.581Z,12.70
2019-02-27T23:35:00.395Z,12.60
2019-02-27T23:37:29.711Z,12.63
2019-02-27T23:39:59.643Z,13.33
2019-02-27T23:42:28.635Z,11.33
2019-02-27T23:44:57.450Z,13.43
2019-02-27T23:47:28.696Z,13.50
2019-02-27T23:49:57.008Z,14.33
2019-02-27T23:52:25.768Z,14.07
2019-02-27T23:54:54.884Z,11.07
2019-02-27T23:57:24.657Z,11.00
2019-02-27T23:59:53.511Z,13.27
